sensor_id;sensor_type;location;lat;lon;timestamp;P1;durP1;ratioP1;P2;durP2;ratioP2
65971;SDS011;52726;48.852;9.152;2022-08-03T00:01:16;3.92;;;2.50;;
65971;SDS011;52726;48.852;9.152;2022-08-03T00:03:42;10.32;;;2.67;;
65971;SDS011;52726;48.852;9.152;2022-08-03T00:06:07;5.53;;;2.60;;
65971;SDS011;52726;48.852;9.152;2022-08-03T00:08:33;6.03;;;2.70;;
65971;SDS011;52726;48.852;9.152;2022-08-03T00:10:59;3.00;;;2.08;;
65971;SDS011;52726;48.852;9.152;2022-08-03T00:13:24;5.78;;;4.00;;
65971;SDS011;52726;48.852;9.152;2022-08-03T00:15:50;2.78;;;2.10;;
65971;SDS011;52726;48.852;9.152;2022-08-03T00:18:16;6.13;;;2.58;;
65971;SDS011;52726;48.852;9.152;2022-08-03T00:20:41;6.78;;;2.60;;
65971;SDS011;52726;48.852;9.152;2022-08-03T00:23:06;2.92;;;2.33;;
65971;SDS011;52726;48.852;9.152;2022-08-03T00:25:35;5.40;;;2.88;;
65971;SDS011;52726;48.852;9.152;2022-08-03T00:28:01;4.38;;;3.05;;
65971;SDS011;52726;48.852;9.152;2022-08-03T00:30:27;5.88;;;2.58;;
65971;SDS011;52726;48.852;9.152;2022-08-03T00:32:53;2.95;;;2.50;;
65971;SDS011;52726;48.852;9.152;2022-08-03T00:35:18;8.20;;;2.50;;
65971;SDS011;52726;48.852;9.152;2022-08-03T00:37:44;7.43;;;3.15;;
65971;SDS011;52726;48.852;9.152;2022-08-03T00:40:10;3.20;;;2.08;;
65971;SDS011;52726;48.852;9.152;2022-08-03T00:42:54;5.43;;;2.30;;
65971;SDS011;52726;48.852;9.152;2022-08-03T00:45:25;4.93;;;2.13;;
65971;SDS011;52726;48.852;9.152;2022-08-03T00:47:52;4.07;;;2.67;;
65971;SDS011;52726;48.852;9.152;2022-08-03T00:50:18;3.85;;;2.47;;
65971;SDS011;52726;48.852;9.152;2022-08-03T00:52:46;3.63;;;2.30;;
65971;SDS011;52726;48.852;9.152;2022-08-03T00:55:12;2.33;;;2.10;;
65971;SDS011;52726;48.852;9.152;2022-08-03T00:57:38;4.22;;;2.20;;
65971;SDS011;52726;48.852;9.152;2022-08-03T01:00:04;2.55;;;2.22;;
65971;SDS011;52726;48.852;9.152;2022-08-03T01:02:31;4.18;;;2.42;;
65971;SDS011;52726;48.852;9.152;2022-08-03T01:04:57;3.88;;;2.45;;
65971;SDS011;52726;48.852;9.152;2022-08-03T01:07:35;3.03;;;2.30;;
65971;SDS011;52726;48.852;9.152;2022-08-03T01:13:00;3.05;;;2.33;;
65971;SDS011;52726;48.852;9.152;2022-08-03T01:15:42;4.80;;;2.15;;
65971;SDS011;52726;48.852;9.152;2022-08-03T01:18:17;3.15;;;2.58;;
65971;SDS011;52726;48.852;9.152;2022-08-03T01:20:47;3.75;;;2.35;;
65971;SDS011;52726;48.852;9.152;2022-08-03T01:23:26;4.90;;;2.17;;
65971;SDS011;52726;48.852;9.152;2022-08-03T01:31:13;5.13;;;2.50;;
65971;SDS011;52726;48.852;9.152;2022-08-03T01:33:43;4.30;;;2.47;;
65971;SDS011;52726;48.852;9.152;2022-08-03T01:36:15;4.57;;;2.67;;
65971;SDS011;52726;48.852;9.152;2022-08-03T01:38:48;3.15;;;2.30;;
65971;SDS011;52726;48.852;9.152;2022-08-03T01:41:20;5.22;;;2.67;;
65971;SDS011;52726;48.852;9.152;2022-08-03T01:43:49;7.75;;;2.85;;
65971;SDS011;52726;48.852;9.152;2022-08-03T01:46:17;4.55;;;2.63;;
65971;SDS011;52726;48.852;9.152;2022-08-03T01:48:45;4.25;;;2.78;;
65971;SDS011;52726;48.852;9.152;2022-08-03T01:51:12;3.75;;;2.78;;
65971;SDS011;52726;48.852;9.152;2022-08-03T01:53:40;10.07;;;3.30;;
65971;SDS011;52726;48.852;9.152;2022-08-03T01:56:09;5.53;;;3.35;;
65971;SDS011;52726;48.852;9.152;2022-08-03T01:58:37;6.10;;;3.00;;
65971;SDS011;52726;48.852;9.152;2022-08-03T02:01:04;4.78;;;2.60;;
65971;SDS011;52726;48.852;9.152;2022-08-03T02:03:33;6.68;;;2.85;;
65971;SDS011;52726;48.852;9.152;2022-08-03T02:06:02;5.75;;;2.88;;
65971;SDS011;52726;48.852;9.152;2022-08-03T02:08:29;5.00;;;3.38;;
65971;SDS011;52726;48.852;9.152;2022-08-03T02:10:56;5.25;;;3.08;;
65971;SDS011;52726;48.852;9.152;2022-08-03T02:13:23;6.38;;;3.00;;
65971;SDS011;52726;48.852;9.152;2022-08-03T02:15:50;7.00;;;2.90;;
65971;SDS011;52726;48.852;9.152;2022-08-03T02:18:17;7.18;;;3.20;;
65971;SDS011;52726;48.852;9.152;2022-08-03T02:20:45;3.97;;;2.88;;
65971;SDS011;52726;48.852;9.152;2022-08-03T02:23:11;7.53;;;2.80;;
65971;SDS011;52726;48.852;9.152;2022-08-03T02:25:43;4.30;;;2.92;;
65971;SDS011;52726;48.852;9.152;2022-08-03T02:28:14;6.90;;;3.67;;
65971;SDS011;52726;48.852;9.152;2022-08-03T02:30:42;5.93;;;3.40;;
65971;SDS011;52726;48.852;9.152;2022-08-03T02:33:11;3.42;;;2.50;;
65971;SDS011;52726;48.852;9.152;2022-08-03T02:35:41;9.25;;;3.22;;
65971;SDS011;52726;48.852;9.152;2022-08-03T02:38:07;6.53;;;3.45;;
65971;SDS011;52726;48.852;9.152;2022-08-03T02:40:35;4.88;;;3.13;;
65971;SDS011;52726;48.852;9.152;2022-08-03T02:43:02;6.30;;;3.20;;
65971;SDS011;52726;48.852;9.152;2022-08-03T02:45:31;7.05;;;3.42;;
65971;SDS011;52726;48.852;9.152;2022-08-03T02:48:02;5.88;;;3.70;;
65971;SDS011;52726;48.852;9.152;2022-08-03T02:50:28;4.10;;;3.00;;
65971;SDS011;52726;48.852;9.152;2022-08-03T02:52:57;6.03;;;3.17;;
65971;SDS011;52726;48.852;9.152;2022-08-03T02:55:24;6.03;;;3.33;;
65971;SDS011;52726;48.852;9.152;2022-08-03T02:57:51;6.25;;;3.10;;
65971;SDS011;52726;48.852;9.152;2022-08-03T03:00:18;5.57;;;3.60;;
65971;SDS011;52726;48.852;9.152;2022-08-03T03:02:43;5.82;;;3.42;;
65971;SDS011;52726;48.852;9.152;2022-08-03T03:05:10;4.90;;;3.10;;
65971;SDS011;52726;48.852;9.152;2022-08-03T03:07:35;6.28;;;3.20;;
65971;SDS011;52726;48.852;9.152;2022-08-03T03:10:02;5.03;;;3.40;;
65971;SDS011;52726;48.852;9.152;2022-08-03T03:12:30;5.10;;;3.92;;
65971;SDS011;52726;48.852;9.152;2022-08-03T03:14:55;4.55;;;3.53;;
65971;SDS011;52726;48.852;9.152;2022-08-03T03:17:21;4.07;;;3.10;;
65971;SDS011;52726;48.852;9.152;2022-08-03T03:19:48;5.90;;;3.15;;
65971;SDS011;52726;48.852;9.152;2022-08-03T03:22:15;5.45;;;3.63;;
65971;SDS011;52726;48.852;9.152;2022-08-03T03:24:41;7.22;;;3.25;;
65971;SDS011;52726;48.852;9.152;2022-08-03T03:27:07;6.25;;;3.15;;
65971;SDS011;52726;48.852;9.152;2022-08-03T03:29:33;5.95;;;3.13;;
65971;SDS011;52726;48.852;9.152;2022-08-03T03:32:00;8.27;;;3.00;;
65971;SDS011;52726;48.852;9.152;2022-08-03T03:34:25;5.53;;;3.28;;
65971;SDS011;52726;48.852;9.152;2022-08-03T03:36:54;5.65;;;3.25;;
65971;SDS011;52726;48.852;9.152;2022-08-03T03:39:19;5.65;;;3.50;;
65971;SDS011;52726;48.852;9.152;2022-08-03T03:41:44;6.00;;;3.42;;
65971;SDS011;52726;48.852;9.152;2022-08-03T03:44:10;4.15;;;3.20;;
65971;SDS011;52726;48.852;9.152;2022-08-03T03:46:36;3.05;;;2.72;;
65971;SDS011;52726;48.852;9.152;2022-08-03T03:49:04;6.95;;;3.42;;
65971;SDS011;52726;48.852;9.152;2022-08-03T03:51:30;5.20;;;3.20;;
65971;SDS011;52726;48.852;9.152;2022-08-03T03:53:56;4.72;;;2.80;;
65971;SDS011;52726;48.852;9.152;2022-08-03T03:56:22;5.70;;;3.40;;
65971;SDS011;52726;48.852;9.152;2022-08-03T03:58:47;11.88;;;3.35;;
65971;SDS011;52726;48.852;9.152;2022-08-03T04:01:13;12.10;;;3.67;;
65971;SDS011;52726;48.852;9.152;2022-08-03T04:03:38;4.93;;;3.38;;
65971;SDS011;52726;48.852;9.152;2022-08-03T04:06:04;5.82;;;2.95;;
65971;SDS011;52726;48.852;9.152;2022-08-03T04:08:48;5.20;;;3.35;;
65971;SDS011;52726;48.852;9.152;2022-08-03T04:11:36;3.17;;;2.67;;
65971;SDS011;52726;48.852;9.152;2022-08-03T04:16:44;6.00;;;3.45;;
65971;SDS011;52726;48.852;9.152;2022-08-03T04:19:14;6.55;;;2.90;;
65971;SDS011;52726;48.852;9.152;2022-08-03T04:21:44;6.17;;;3.27;;
65971;SDS011;52726;48.852;9.152;2022-08-03T04:24:14;5.97;;;3.45;;
65971;SDS011;52726;48.852;9.152;2022-08-03T04:26:40;5.25;;;3.20;;
65971;SDS011;52726;48.852;9.152;2022-08-03T04:29:08;4.30;;;3.08;;
65971;SDS011;52726;48.852;9.152;2022-08-03T04:31:35;5.30;;;3.20;;
65971;SDS011;52726;48.852;9.152;2022-08-03T04:34:03;5.32;;;2.85;;
65971;SDS011;52726;48.852;9.152;2022-08-03T04:36:30;9.48;;;3.70;;
65971;SDS011;52726;48.852;9.152;2022-08-03T04:39:13;7.22;;;3.22;;
65971;SDS011;52726;48.852;9.152;2022-08-03T04:41:49;4.53;;;3.25;;
65971;SDS011;52726;48.852;9.152;2022-08-03T04:44:18;5.22;;;3.30;;
65971;SDS011;52726;48.852;9.152;2022-08-03T04:46:47;4.75;;;3.47;;
65971;SDS011;52726;48.852;9.152;2022-08-03T04:49:13;6.35;;;3.17;;
65971;SDS011;52726;48.852;9.152;2022-08-03T04:51:39;6.13;;;3.40;;
65971;SDS011;52726;48.852;9.152;2022-08-03T04:54:04;5.95;;;3.35;;
65971;SDS011;52726;48.852;9.152;2022-08-03T04:56:31;5.55;;;3.17;;
65971;SDS011;52726;48.852;9.152;2022-08-03T04:58:58;3.97;;;3.35;;
65971;SDS011;52726;48.852;9.152;2022-08-03T05:01:23;5.43;;;3.53;;
65971;SDS011;52726;48.852;9.152;2022-08-03T05:03:49;6.28;;;3.88;;
65971;SDS011;52726;48.852;9.152;2022-08-03T05:06:15;6.35;;;3.97;;
65971;SDS011;52726;48.852;9.152;2022-08-03T05:08:40;5.05;;;4.32;;
65971;SDS011;52726;48.852;9.152;2022-08-03T05:11:06;5.53;;;3.22;;
65971;SDS011;52726;48.852;9.152;2022-08-03T05:13:31;8.15;;;3.95;;
65971;SDS011;52726;48.852;9.152;2022-08-03T05:15:57;5.90;;;3.38;;
65971;SDS011;52726;48.852;9.152;2022-08-03T05:18:22;7.20;;;4.03;;
65971;SDS011;52726;48.852;9.152;2022-08-03T05:20:47;4.15;;;3.58;;
65971;SDS011;52726;48.852;9.152;2022-08-03T05:23:13;7.75;;;3.65;;
65971;SDS011;52726;48.852;9.152;2022-08-03T05:25:38;5.60;;;3.78;;
65971;SDS011;52726;48.852;9.152;2022-08-03T05:28:04;8.68;;;3.70;;
65971;SDS011;52726;48.852;9.152;2022-08-03T05:30:29;5.75;;;3.35;;
65971;SDS011;52726;48.852;9.152;2022-08-03T05:32:54;7.60;;;3.28;;
65971;SDS011;52726;48.852;9.152;2022-08-03T05:35:20;6.15;;;3.75;;
65971;SDS011;52726;48.852;9.152;2022-08-03T05:37:45;6.95;;;3.90;;
65971;SDS011;52726;48.852;9.152;2022-08-03T05:40:11;8.07;;;3.92;;
65971;SDS011;52726;48.852;9.152;2022-08-03T05:42:36;6.20;;;3.40;;
65971;SDS011;52726;48.852;9.152;2022-08-03T05:45:05;7.35;;;3.40;;
65971;SDS011;52726;48.852;9.152;2022-08-03T05:47:38;5.78;;;3.58;;
65971;SDS011;52726;48.852;9.152;2022-08-03T05:50:04;4.30;;;3.40;;
65971;SDS011;52726;48.852;9.152;2022-08-03T05:52:30;6.93;;;3.78;;
65971;SDS011;52726;48.852;9.152;2022-08-03T05:54:56;8.02;;;3.67;;
65971;SDS011;52726;48.852;9.152;2022-08-03T05:57:21;5.38;;;3.40;;
65971;SDS011;52726;48.852;9.152;2022-08-03T05:59:46;8.27;;;4.68;;
65971;SDS011;52726;48.852;9.152;2022-08-03T06:02:12;5.45;;;3.45;;
65971;SDS011;52726;48.852;9.152;2022-08-03T06:04:37;5.00;;;3.38;;
65971;SDS011;52726;48.852;9.152;2022-08-03T06:07:03;7.95;;;3.40;;
65971;SDS011;52726;48.852;9.152;2022-08-03T06:09:28;5.28;;;3.72;;
65971;SDS011;52726;48.852;9.152;2022-08-03T06:11:53;6.15;;;3.50;;
65971;SDS011;52726;48.852;9.152;2022-08-03T06:14:19;7.55;;;3.80;;
65971;SDS011;52726;48.852;9.152;2022-08-03T06:16:44;6.57;;;3.00;;
65971;SDS011;52726;48.852;9.152;2022-08-03T06:19:09;8.48;;;3.40;;
65971;SDS011;52726;48.852;9.152;2022-08-03T06:21:35;6.32;;;3.33;;
65971;SDS011;52726;48.852;9.152;2022-08-03T06:24:00;5.38;;;3.45;;
65971;SDS011;52726;48.852;9.152;2022-08-03T06:26:26;6.28;;;3.33;;
65971;SDS011;52726;48.852;9.152;2022-08-03T06:28:52;5.82;;;2.97;;
65971;SDS011;52726;48.852;9.152;2022-08-03T06:31:18;5.25;;;3.50;;
65971;SDS011;52726;48.852;9.152;2022-08-03T06:33:44;5.10;;;3.45;;
65971;SDS011;52726;48.852;9.152;2022-08-03T06:36:09;11.05;;;3.70;;
65971;SDS011;52726;48.852;9.152;2022-08-03T06:38:34;6.45;;;3.30;;
65971;SDS011;52726;48.852;9.152;2022-08-03T06:41:00;7.97;;;3.13;;
65971;SDS011;52726;48.852;9.152;2022-08-03T06:43:25;3.88;;;2.70;;
65971;SDS011;52726;48.852;9.152;2022-08-03T06:45:51;4.05;;;3.35;;
65971;SDS011;52726;48.852;9.152;2022-08-03T06:48:16;4.72;;;3.03;;
65971;SDS011;52726;48.852;9.152;2022-08-03T06:50:41;8.10;;;3.72;;
65971;SDS011;52726;48.852;9.152;2022-08-03T06:53:08;4.05;;;3.10;;
65971;SDS011;52726;48.852;9.152;2022-08-03T06:55:34;5.38;;;2.95;;
65971;SDS011;52726;48.852;9.152;2022-08-03T06:57:59;6.22;;;2.80;;
65971;SDS011;52726;48.852;9.152;2022-08-03T07:00:25;6.30;;;2.78;;
65971;SDS011;52726;48.852;9.152;2022-08-03T07:02:51;5.72;;;3.00;;
65971;SDS011;52726;48.852;9.152;2022-08-03T07:05:17;5.20;;;2.67;;
65971;SDS011;52726;48.852;9.152;2022-08-03T07:07:43;4.78;;;3.28;;
65971;SDS011;52726;48.852;9.152;2022-08-03T07:10:08;5.55;;;2.70;;
65971;SDS011;52726;48.852;9.152;2022-08-03T07:12:35;7.05;;;2.75;;
65971;SDS011;52726;48.852;9.152;2022-08-03T07:15:02;6.65;;;2.50;;
65971;SDS011;52726;48.852;9.152;2022-08-03T07:17:29;4.00;;;2.60;;
65971;SDS011;52726;48.852;9.152;2022-08-03T07:19:57;4.68;;;3.20;;
65971;SDS011;52726;48.852;9.152;2022-08-03T07:22:23;5.20;;;2.67;;
65971;SDS011;52726;48.852;9.152;2022-08-03T07:24:48;12.45;;;2.65;;
65971;SDS011;52726;48.852;9.152;2022-08-03T07:27:17;5.15;;;2.63;;
65971;SDS011;52726;48.852;9.152;2022-08-03T07:29:42;7.05;;;2.50;;
65971;SDS011;52726;48.852;9.152;2022-08-03T07:32:08;2.78;;;2.35;;
65971;SDS011;52726;48.852;9.152;2022-08-03T07:34:33;4.38;;;2.15;;
65971;SDS011;52726;48.852;9.152;2022-08-03T07:36:58;2.30;;;2.10;;
65971;SDS011;52726;48.852;9.152;2022-08-03T07:39:24;4.63;;;2.17;;
65971;SDS011;52726;48.852;9.152;2022-08-03T07:41:49;4.90;;;2.30;;
65971;SDS011;52726;48.852;9.152;2022-08-03T07:44:16;5.47;;;2.10;;
65971;SDS011;52726;48.852;9.152;2022-08-03T07:46:42;4.80;;;2.47;;
65971;SDS011;52726;48.852;9.152;2022-08-03T07:49:08;2.35;;;2.03;;
65971;SDS011;52726;48.852;9.152;2022-08-03T07:51:34;3.25;;;2.10;;
65971;SDS011;52726;48.852;9.152;2022-08-03T07:53:59;3.10;;;2.45;;
65971;SDS011;52726;48.852;9.152;2022-08-03T07:56:25;7.63;;;2.13;;
65971;SDS011;52726;48.852;9.152;2022-08-03T07:58:51;5.07;;;2.13;;
65971;SDS011;52726;48.852;9.152;2022-08-03T08:01:16;2.65;;;2.25;;
65971;SDS011;52726;48.852;9.152;2022-08-03T08:03:43;3.22;;;2.08;;
65971;SDS011;52726;48.852;9.152;2022-08-03T08:06:12;5.45;;;1.75;;
65971;SDS011;52726;48.852;9.152;2022-08-03T08:08:38;1.70;;;1.60;;
65971;SDS011;52726;48.852;9.152;2022-08-03T08:11:04;4.35;;;1.92;;
65971;SDS011;52726;48.852;9.152;2022-08-03T08:13:29;4.38;;;1.90;;
65971;SDS011;52726;48.852;9.152;2022-08-03T08:15:55;2.33;;;1.77;;
65971;SDS011;52726;48.852;9.152;2022-08-03T08:18:20;5.43;;;2.60;;
65971;SDS011;52726;48.852;9.152;2022-08-03T08:20:46;2.67;;;2.05;;
65971;SDS011;52726;48.852;9.152;2022-08-03T08:23:11;3.72;;;2.08;;
65971;SDS011;52726;48.852;9.152;2022-08-03T08:25:37;2.08;;;1.80;;
65971;SDS011;52726;48.852;9.152;2022-08-03T08:28:02;4.95;;;1.90;;
65971;SDS011;52726;48.852;9.152;2022-08-03T08:30:29;4.53;;;1.60;;
65971;SDS011;52726;48.852;9.152;2022-08-03T08:32:55;2.88;;;1.80;;
65971;SDS011;52726;48.852;9.152;2022-08-03T08:35:21;2.85;;;2.03;;
65971;SDS011;52726;48.852;9.152;2022-08-03T08:37:47;2.22;;;1.60;;
65971;SDS011;52726;48.852;9.152;2022-08-03T08:40:12;2.40;;;1.63;;
65971;SDS011;52726;48.852;9.152;2022-08-03T08:42:41;1.70;;;1.60;;
65971;SDS011;52726;48.852;9.152;2022-08-03T08:45:08;1.30;;;1.20;;
65971;SDS011;52726;48.852;9.152;2022-08-03T08:47:39;1.48;;;1.10;;
65971;SDS011;52726;48.852;9.152;2022-08-03T08:50:08;6.28;;;1.50;;
65971;SDS011;52726;48.852;9.152;2022-08-03T08:52:34;1.90;;;1.50;;
65971;SDS011;52726;48.852;9.152;2022-08-03T08:55:04;3.65;;;1.77;;
65971;SDS011;52726;48.852;9.152;2022-08-03T08:57:35;3.65;;;1.42;;
65971;SDS011;52726;48.852;9.152;2022-08-03T09:00:03;1.90;;;1.42;;
65971;SDS011;52726;48.852;9.152;2022-08-03T09:02:34;5.70;;;1.30;;
65971;SDS011;52726;48.852;9.152;2022-08-03T09:05:00;1.58;;;1.42;;
65971;SDS011;52726;48.852;9.152;2022-08-03T09:07:26;2.17;;;1.38;;
65971;SDS011;52726;48.852;9.152;2022-08-03T09:09:52;2.28;;;1.33;;
65971;SDS011;52726;48.852;9.152;2022-08-03T09:12:17;2.05;;;1.42;;
65971;SDS011;52726;48.852;9.152;2022-08-03T09:14:43;2.15;;;1.30;;
65971;SDS011;52726;48.852;9.152;2022-08-03T09:17:09;2.15;;;1.23;;
65971;SDS011;52726;48.852;9.152;2022-08-03T09:19:34;1.25;;;1.20;;
65971;SDS011;52726;48.852;9.152;2022-08-03T09:27:20;1.38;;;1.17;;
65971;SDS011;52726;48.852;9.152;2022-08-03T09:29:50;4.38;;;1.40;;
65971;SDS011;52726;48.852;9.152;2022-08-03T09:32:23;4.47;;;1.30;;
65971;SDS011;52726;48.852;9.152;2022-08-03T09:34:49;1.88;;;1.13;;
65971;SDS011;52726;48.852;9.152;2022-08-03T09:37:17;2.00;;;1.30;;
65971;SDS011;52726;48.852;9.152;2022-08-03T09:39:44;1.58;;;1.13;;
65971;SDS011;52726;48.852;9.152;2022-08-03T09:42:14;1.40;;;1.27;;
65971;SDS011;52726;48.852;9.152;2022-08-03T09:44:44;3.28;;;1.40;;
65971;SDS011;52726;48.852;9.152;2022-08-03T09:47:12;4.35;;;1.27;;
65971;SDS011;52726;48.852;9.152;2022-08-03T09:49:39;1.30;;;1.20;;
65971;SDS011;52726;48.852;9.152;2022-08-03T09:52:12;1.52;;;1.15;;
65971;SDS011;52726;48.852;9.152;2022-08-03T09:54:40;1.08;;;1.05;;
65971;SDS011;52726;48.852;9.152;2022-08-03T09:57:06;1.58;;;1.30;;
65971;SDS011;52726;48.852;9.152;2022-08-03T09:59:32;2.35;;;1.23;;
65971;SDS011;52726;48.852;9.152;2022-08-03T10:01:58;1.23;;;1.00;;
65971;SDS011;52726;48.852;9.152;2022-08-03T10:04:24;0.85;;;0.85;;
65971;SDS011;52726;48.852;9.152;2022-08-03T10:07:06;2.97;;;0.90;;
65971;SDS011;52726;48.852;9.152;2022-08-03T10:09:33;1.98;;;1.20;;
65971;SDS011;52726;48.852;9.152;2022-08-03T10:12:11;1.10;;;1.10;;
65971;SDS011;52726;48.852;9.152;2022-08-03T10:14:40;1.75;;;1.10;;
65971;SDS011;52726;48.852;9.152;2022-08-03T10:17:08;3.03;;;0.93;;
65971;SDS011;52726;48.852;9.152;2022-08-03T10:19:34;3.45;;;1.25;;
65971;SDS011;52726;48.852;9.152;2022-08-03T10:22:01;2.38;;;1.20;;
65971;SDS011;52726;48.852;9.152;2022-08-03T10:25:03;1.33;;;1.23;;
65971;SDS011;52726;48.852;9.152;2022-08-03T10:27:39;1.00;;;1.00;;
65971;SDS011;52726;48.852;9.152;2022-08-03T10:30:06;2.65;;;1.40;;
65971;SDS011;52726;48.852;9.152;2022-08-03T10:32:51;2.53;;;1.40;;
65971;SDS011;52726;48.852;9.152;2022-08-03T10:35:25;1.92;;;1.65;;
65971;SDS011;52726;48.852;9.152;2022-08-03T10:40:23;1.23;;;1.20;;
65971;SDS011;52726;48.852;9.152;2022-08-03T10:42:53;1.63;;;1.52;;
65971;SDS011;52726;48.852;9.152;2022-08-03T10:45:22;2.90;;;1.40;;
65971;SDS011;52726;48.852;9.152;2022-08-03T10:47:50;1.38;;;1.23;;
65971;SDS011;52726;48.852;9.152;2022-08-03T10:50:16;2.22;;;1.10;;
65971;SDS011;52726;48.852;9.152;2022-08-03T10:52:53;1.65;;;1.30;;
65971;SDS011;52726;48.852;9.152;2022-08-03T11:01:00;1.35;;;1.25;;
65971;SDS011;52726;48.852;9.152;2022-08-03T11:03:26;6.50;;;1.58;;
65971;SDS011;52726;48.852;9.152;2022-08-03T11:05:52;2.97;;;1.40;;
65971;SDS011;52726;48.852;9.152;2022-08-03T11:08:23;1.45;;;1.35;;
65971;SDS011;52726;48.852;9.152;2022-08-03T11:10:52;1.35;;;1.02;;
65971;SDS011;52726;48.852;9.152;2022-08-03T11:15:50;1.40;;;1.30;;
65971;SDS011;52726;48.852;9.152;2022-08-03T11:18:18;4.28;;;1.20;;
65971;SDS011;52726;48.852;9.152;2022-08-03T11:20:50;4.15;;;1.30;;
65971;SDS011;52726;48.852;9.152;2022-08-03T11:26:10;2.90;;;1.10;;
65971;SDS011;52726;48.852;9.152;2022-08-03T11:28:40;1.30;;;1.20;;
65971;SDS011;52726;48.852;9.152;2022-08-03T11:39:36;1.70;;;1.42;;
65971;SDS011;52726;48.852;9.152;2022-08-03T11:44:46;2.42;;;1.20;;
65971;SDS011;52726;48.852;9.152;2022-08-03T11:47:13;1.30;;;1.20;;
65971;SDS011;52726;48.852;9.152;2022-08-03T11:49:42;1.30;;;1.30;;
65971;SDS011;52726;48.852;9.152;2022-08-03T11:52:10;1.33;;;0.90;;
65971;SDS011;52726;48.852;9.152;2022-08-03T11:54:35;2.28;;;1.23;;
65971;SDS011;52726;48.852;9.152;2022-08-03T11:57:01;3.00;;;1.75;;
65971;SDS011;52726;48.852;9.152;2022-08-03T11:59:33;1.27;;;1.15;;
65971;SDS011;52726;48.852;9.152;2022-08-03T12:02:06;1.23;;;1.20;;
65971;SDS011;52726;48.852;9.152;2022-08-03T12:04:48;2.05;;;1.45;;
65971;SDS011;52726;48.852;9.152;2022-08-03T12:07:17;3.00;;;1.48;;
65971;SDS011;52726;48.852;9.152;2022-08-03T12:09:43;1.52;;;1.42;;
65971;SDS011;52726;48.852;9.152;2022-08-03T12:12:25;1.63;;;1.45;;
65971;SDS011;52726;48.852;9.152;2022-08-03T12:14:51;1.58;;;1.40;;
65971;SDS011;52726;48.852;9.152;2022-08-03T12:17:16;2.35;;;1.40;;
65971;SDS011;52726;48.852;9.152;2022-08-03T12:19:42;1.50;;;1.20;;
65971;SDS011;52726;48.852;9.152;2022-08-03T12:22:08;2.25;;;1.42;;
65971;SDS011;52726;48.852;9.152;2022-08-03T12:24:43;1.65;;;1.40;;
65971;SDS011;52726;48.852;9.152;2022-08-03T12:27:09;1.85;;;1.13;;
65971;SDS011;52726;48.852;9.152;2022-08-03T12:29:34;3.08;;;1.20;;
65971;SDS011;52726;48.852;9.152;2022-08-03T12:32:00;1.30;;;1.15;;
65971;SDS011;52726;48.852;9.152;2022-08-03T12:37:13;1.45;;;1.30;;
65971;SDS011;52726;48.852;9.152;2022-08-03T12:39:42;1.30;;;1.20;;
65971;SDS011;52726;48.852;9.152;2022-08-03T12:42:14;1.60;;;1.50;;
65971;SDS011;52726;48.852;9.152;2022-08-03T12:44:40;1.10;;;1.00;;
65971;SDS011;52726;48.852;9.152;2022-08-03T12:47:05;2.75;;;1.30;;
65971;SDS011;52726;48.852;9.152;2022-08-03T12:49:44;1.48;;;1.33;;
65971;SDS011;52726;48.852;9.152;2022-08-03T12:52:10;1.30;;;1.17;;
65971;SDS011;52726;48.852;9.152;2022-08-03T12:54:35;1.73;;;1.38;;
65971;SDS011;52726;48.852;9.152;2022-08-03T12:57:04;1.50;;;1.40;;
65971;SDS011;52726;48.852;9.152;2022-08-03T12:59:32;1.40;;;1.30;;
65971;SDS011;52726;48.852;9.152;2022-08-03T13:01:58;1.48;;;1.38;;
65971;SDS011;52726;48.852;9.152;2022-08-03T13:04:42;1.48;;;1.38;;
65971;SDS011;52726;48.852;9.152;2022-08-03T13:07:09;1.42;;;1.33;;
65971;SDS011;52726;48.852;9.152;2022-08-03T13:09:43;1.48;;;1.38;;
65971;SDS011;52726;48.852;9.152;2022-08-03T13:12:10;3.78;;;1.30;;
65971;SDS011;52726;48.852;9.152;2022-08-03T13:14:39;2.70;;;1.20;;
65971;SDS011;52726;48.852;9.152;2022-08-03T13:17:05;2.72;;;1.58;;
65971;SDS011;52726;48.852;9.152;2022-08-03T13:19:33;1.45;;;1.35;;
65971;SDS011;52726;48.852;9.152;2022-08-03T13:22:00;2.85;;;1.38;;
65971;SDS011;52726;48.852;9.152;2022-08-03T13:24:35;1.35;;;0.98;;
65971;SDS011;52726;48.852;9.152;2022-08-03T13:27:00;2.70;;;1.65;;
65971;SDS011;52726;48.852;9.152;2022-08-03T13:29:26;3.05;;;1.60;;
65971;SDS011;52726;48.852;9.152;2022-08-03T13:31:51;2.05;;;1.30;;
65971;SDS011;52726;48.852;9.152;2022-08-03T13:34:17;1.48;;;1.38;;
65971;SDS011;52726;48.852;9.152;2022-08-03T13:36:43;1.85;;;1.30;;
65971;SDS011;52726;48.852;9.152;2022-08-03T13:39:08;2.05;;;1.30;;
65971;SDS011;52726;48.852;9.152;2022-08-03T13:41:34;1.30;;;1.20;;
65971;SDS011;52726;48.852;9.152;2022-08-03T13:43:59;1.10;;;1.00;;
65971;SDS011;52726;48.852;9.152;2022-08-03T13:46:24;1.48;;;1.30;;
65971;SDS011;52726;48.852;9.152;2022-08-03T13:48:51;2.22;;;1.48;;
65971;SDS011;52726;48.852;9.152;2022-08-03T13:51:17;1.60;;;1.50;;
65971;SDS011;52726;48.852;9.152;2022-08-03T13:53:42;2.85;;;1.27;;
65971;SDS011;52726;48.852;9.152;2022-08-03T13:56:07;1.40;;;1.30;;
65971;SDS011;52726;48.852;9.152;2022-08-03T13:58:33;2.97;;;1.50;;
65971;SDS011;52726;48.852;9.152;2022-08-03T14:00:58;7.10;;;1.50;;
65971;SDS011;52726;48.852;9.152;2022-08-03T14:03:33;1.55;;;1.45;;
65971;SDS011;52726;48.852;9.152;2022-08-03T14:05:58;1.50;;;1.33;;
65971;SDS011;52726;48.852;9.152;2022-08-03T14:08:24;3.47;;;1.42;;
65971;SDS011;52726;48.852;9.152;2022-08-03T14:10:49;2.03;;;1.40;;
65971;SDS011;52726;48.852;9.152;2022-08-03T14:13:14;1.80;;;1.40;;
65971;SDS011;52726;48.852;9.152;2022-08-03T14:15:40;1.50;;;1.35;;
65971;SDS011;52726;48.852;9.152;2022-08-03T14:18:06;1.60;;;1.50;;
65971;SDS011;52726;48.852;9.152;2022-08-03T14:20:33;1.45;;;1.35;;
65971;SDS011;52726;48.852;9.152;2022-08-03T14:22:58;1.30;;;1.30;;
65971;SDS011;52726;48.852;9.152;2022-08-03T14:25:24;1.88;;;1.30;;
65971;SDS011;52726;48.852;9.152;2022-08-03T14:27:49;1.30;;;1.20;;
65971;SDS011;52726;48.852;9.152;2022-08-03T14:30:15;1.92;;;1.30;;
65971;SDS011;52726;48.852;9.152;2022-08-03T14:32:40;3.40;;;1.42;;
65971;SDS011;52726;48.852;9.152;2022-08-03T14:35:06;1.75;;;1.48;;
65971;SDS011;52726;48.852;9.152;2022-08-03T14:37:32;1.48;;;1.30;;
65971;SDS011;52726;48.852;9.152;2022-08-03T14:39:58;1.55;;;1.45;;
65971;SDS011;52726;48.852;9.152;2022-08-03T14:42:23;1.40;;;1.30;;
65971;SDS011;52726;48.852;9.152;2022-08-03T14:44:49;1.35;;;1.25;;
65971;SDS011;52726;48.852;9.152;2022-08-03T14:47:14;3.08;;;1.40;;
65971;SDS011;52726;48.852;9.152;2022-08-03T14:49:40;1.55;;;1.23;;
65971;SDS011;52726;48.852;9.152;2022-08-03T14:52:05;1.30;;;1.20;;
65971;SDS011;52726;48.852;9.152;2022-08-03T14:54:31;1.50;;;1.33;;
65971;SDS011;52726;48.852;9.152;2022-08-03T14:56:56;3.22;;;1.45;;
65971;SDS011;52726;48.852;9.152;2022-08-03T14:59:22;1.38;;;1.25;;
65971;SDS011;52726;48.852;9.152;2022-08-03T15:01:48;2.90;;;1.30;;
65971;SDS011;52726;48.852;9.152;2022-08-03T15:04:14;2.97;;;1.50;;
65971;SDS011;52726;48.852;9.152;2022-08-03T15:06:39;1.35;;;1.30;;
65971;SDS011;52726;48.852;9.152;2022-08-03T15:09:04;1.40;;;1.30;;
65971;SDS011;52726;48.852;9.152;2022-08-03T15:11:30;1.15;;;1.10;;
65971;SDS011;52726;48.852;9.152;2022-08-03T15:13:55;1.33;;;1.23;;
65971;SDS011;52726;48.852;9.152;2022-08-03T15:16:21;2.03;;;1.30;;
65971;SDS011;52726;48.852;9.152;2022-08-03T15:18:46;1.58;;;1.15;;
65971;SDS011;52726;48.852;9.152;2022-08-03T15:21:11;1.15;;;1.05;;
65971;SDS011;52726;48.852;9.152;2022-08-03T15:23:37;2.40;;;1.10;;
65971;SDS011;52726;48.852;9.152;2022-08-03T15:26:02;1.33;;;1.23;;
65971;SDS011;52726;48.852;9.152;2022-08-03T15:28:28;2.70;;;1.40;;
65971;SDS011;52726;48.852;9.152;2022-08-03T15:30:53;1.88;;;1.17;;
65971;SDS011;52726;48.852;9.152;2022-08-03T15:33:19;1.23;;;1.10;;